Time;durP1;ratioP1;P1;durP2;ratioP2;P2;SDS_P1;SDS_P2;PMS_P1;PMS_P2;Temp;Humidity;BMP_temperature;BMP_pressure;BME280_temperature;BME280_humidity;BME280_pressure;Samples;Min_cycle;Max_cycle;Signal;HPM_P1;HPM_P2
2021/12/04 00:00:50;;;;;;;43.53;16.17;;;5.50;99.90;;;;;;5031633;28;20060;-70
2021/12/04 00:03:16;;;;;;;43.78;17.42;;;5.50;99.90;;;;;;5033870;28;20051;-70
2021/12/04 00:05:55;;;;;;;46.58;17.98;;;5.50;99.90;;;;;;5016514;28;20053;-70
2021/12/04 00:08:22;;;;;;;42.17;17.27;;;5.50;99.90;;;;;;5034882;28;20059;-70
2021/12/04 00:10:48;;;;;;;44.55;16.73;;;5.50;99.90;;;;;;5036658;28;20056;-70
2021/12/04 00:13:14;;;;;;;39.78;17.15;;;5.50;99.90;;;;;;5019454;28;20045;-72
2021/12/04 00:15:39;;;;;;;42.85;16.67;;;5.50;99.90;;;;;;5013194;28;20093;-71
2021/12/04 00:18:06;;;;;;;41.15;16.85;;;5.50;99.90;;;;;;5024753;28;20110;-70
2021/12/04 00:20:32;;;;;;;39.35;16.00;;;5.40;99.90;;;;;;5035233;28;20051;-70
2021/12/04 00:22:59;;;;;;;40.63;16.77;;;5.50;99.90;;;;;;5041331;28;20044;-70
2021/12/04 00:25:27;;;;;;;37.65;15.55;;;5.60;99.90;;;;;;5034993;28;20107;-70
2021/12/04 00:27:53;;;;;;;41.97;17.05;;;5.50;99.90;;;;;;5012231;28;20057;-69
2021/12/04 00:30:20;;;;;;;43.70;17.48;;;5.90;99.90;;;;;;5014019;28;20603;-69
2021/12/04 00:32:55;;;;;;;45.45;17.33;;;5.50;99.90;;;;;;5006158;28;20052;-70
2021/12/04 00:38:02;;;;;;;47.05;17.90;;;5.50;99.90;;;;;;5006349;28;20089;-70
2021/12/04 00:51:25;;;;;;;50.03;18.10;;;5.40;99.90;;;;;;5009120;28;20080;-71
2021/12/04 00:53:54;;;;;;;48.63;17.85;;;5.40;99.90;;;;;;5000048;28;20080;-70
2021/12/04 00:56:21;;;;;;;54.53;20.10;;;5.40;99.90;;;;;;4990121;28;20096;-71
2021/12/04 00:58:46;;;;;;;58.83;20.02;;;5.60;99.90;;;;;;5002432;28;20041;-70
2021/12/04 01:01:20;;;;;;;59.70;20.40;;;6.00;99.90;;;;;;5015242;28;20041;-70
2021/12/04 01:03:46;;;;;;;57.22;20.27;;;5.50;99.90;;;;;;5015935;28;20073;-70
2021/12/04 01:06:12;;;;;;;51.75;18.05;;;5.40;99.90;;;;;;4999252;28;20065;-69
2021/12/04 01:08:38;;;;;;;53.05;17.52;;;5.40;99.90;;;;;;4994344;28;20077;-70
2021/12/04 01:11:07;;;;;;;64.32;20.70;;;5.40;99.90;;;;;;5017287;28;20038;-70
2021/12/04 01:13:34;;;;;;;57.47;19.17;;;5.40;99.90;;;;;;5011821;28;20137;-70
2021/12/04 01:15:59;;;;;;;54.17;17.75;;;5.40;99.90;;;;;;5011895;28;20049;-73
2021/12/04 01:18:25;;;;;;;49.67;17.67;;;5.40;99.90;;;;;;5025300;28;20045;-70
2021/12/04 01:20:54;;;;;;;62.97;20.60;;;5.50;99.90;;;;;;4992917;28;20057;-70
2021/12/04 01:23:19;;;;;;;61.33;21.00;;;5.40;99.90;;;;;;5015452;28;20364;-70
2021/12/04 01:25:45;;;;;;;69.45;19.83;;;5.40;99.90;;;;;;5025472;28;20065;-71
2021/12/04 01:28:11;;;;;;;57.45;17.42;;;5.40;99.90;;;;;;5020983;28;20489;-70
2021/12/04 01:30:37;;;;;;;66.95;20.60;;;5.40;99.90;;;;;;5034817;28;20102;-70
2021/12/04 01:33:03;;;;;;;69.55;19.17;;;5.40;99.90;;;;;;5038576;28;20477;-71
2021/12/04 01:35:29;;;;;;;62.38;19.73;;;5.40;99.90;;;;;;5036627;28;20053;-73
2021/12/04 01:37:55;;;;;;;62.13;18.80;;;5.40;99.90;;;;;;5034249;28;20045;-71
2021/12/04 01:40:22;;;;;;;60.63;17.70;;;5.70;99.90;;;;;;5031268;28;20044;-71
2021/12/04 01:42:47;;;;;;;67.85;20.63;;;5.40;99.90;;;;;;5039192;28;20509;-71
2021/12/04 01:45:16;;;;;;;63.83;20.42;;;5.50;99.90;;;;;;5002163;28;20068;-70
2021/12/04 01:47:41;;;;;;;72.30;20.85;;;5.40;99.90;;;;;;5020878;28;20045;-71
2021/12/04 01:50:08;;;;;;;66.13;20.50;;;5.40;99.90;;;;;;5019776;28;20041;-70
2021/12/04 01:52:33;;;;;;;77.05;21.10;;;5.40;99.90;;;;;;5036760;28;20051;-70
2021/12/04 01:54:59;;;;;;;77.75;20.77;;;5.40;99.90;;;;;;5036848;28;20037;-72
2021/12/04 01:57:25;;;;;;;65.53;19.67;;;5.40;99.90;;;;;;5018828;28;20052;-70
2021/12/04 01:59:51;;;;;;;66.03;20.50;;;5.50;99.90;;;;;;5048042;28;20040;-71
2021/12/04 02:02:18;;;;;;;71.68;18.85;;;5.40;99.90;;;;;;5033780;28;20056;-70
2021/12/04 02:04:44;;;;;;;65.28;18.42;;;5.30;99.90;;;;;;5031958;28;20040;-70
2021/12/04 02:07:11;;;;;;;69.05;17.73;;;5.40;99.90;;;;;;5051993;28;20053;-71
2021/12/04 02:09:37;;;;;;;69.25;20.60;;;5.40;99.90;;;;;;5047584;28;20101;-70
2021/12/04 02:12:05;;;;;;;77.32;20.55;;;5.40;99.90;;;;;;5036914;28;20067;-72
2021/12/04 02:14:32;;;;;;;71.65;19.70;;;5.40;99.90;;;;;;5031992;28;20056;-71
2021/12/04 02:16:58;;;;;;;65.22;19.05;;;5.30;99.90;;;;;;5043854;28;20048;-70
2021/12/04 02:19:24;;;;;;;64.97;18.95;;;5.30;99.90;;;;;;5047180;28;20107;-70
2021/12/04 02:21:50;;;;;;;65.13;17.65;;;5.30;99.90;;;;;;5054831;28;20060;-70
2021/12/04 02:24:16;;;;;;;63.70;18.35;;;5.30;99.90;;;;;;5038359;28;20049;-70
2021/12/04 02:26:42;;;;;;;52.92;15.07;;;5.30;99.90;;;;;;5054796;28;20044;-72
2021/12/04 02:29:09;;;;;;;64.05;18.52;;;5.30;99.90;;;;;;5022126;28;20053;-70
2021/12/04 02:31:35;;;;;;;63.25;18.13;;;5.40;99.90;;;;;;5038075;28;20048;-70
2021/12/04 02:34:00;;;;;;;62.45;17.10;;;5.40;99.90;;;;;;5045865;28;20602;-71
2021/12/04 02:36:27;;;;;;;58.50;16.25;;;5.30;99.90;;;;;;5038336;28;20052;-70
2021/12/04 02:38:53;;;;;;;67.85;17.98;;;5.30;99.90;;;;;;5021640;28;20052;-70
2021/12/04 02:41:20;;;;;;;60.08;17.70;;;5.40;99.90;;;;;;5018241;28;20041;-70
2021/12/04 02:43:46;;;;;;;58.38;17.38;;;5.30;99.90;;;;;;5035229;28;20098;-70
2021/12/04 02:46:14;;;;;;;51.10;16.35;;;5.30;99.90;;;;;;5041692;28;20036;-70
2021/12/04 02:48:45;;;;;;;48.03;15.38;;;5.40;99.90;;;;;;5044681;28;20115;-70
2021/12/04 02:51:11;;;;;;;60.53;18.88;;;5.40;99.90;;;;;;5037343;28;20072;-70
2021/12/04 02:53:37;;;;;;;53.60;18.92;;;5.40;99.90;;;;;;5029384;28;20048;-70
2021/12/04 02:56:05;;;;;;;43.72;14.20;;;5.40;99.90;;;;;;5022213;28;20098;-70
2021/12/04 02:58:32;;;;;;;56.17;17.55;;;5.30;99.90;;;;;;5037249;28;20119;-70
2021/12/04 03:00:59;;;;;;;50.30;16.50;;;5.40;99.90;;;;;;5040470;28;20041;-70
2021/12/04 03:03:24;;;;;;;49.28;15.63;;;5.30;99.90;;;;;;5046294;28;20165;-70
2021/12/04 03:05:51;;;;;;;51.08;18.05;;;5.30;99.90;;;;;;5025250;28;20534;-70
2021/12/04 03:08:18;;;;;;;45.30;15.65;;;5.30;99.90;;;;;;5047333;28;20067;-70
2021/12/04 03:10:47;;;;;;;44.38;15.57;;;5.40;99.90;;;;;;5041459;28;20072;-70
2021/12/04 03:13:13;;;;;;;51.75;16.70;;;5.40;99.90;;;;;;5049462;28;20473;-72
2021/12/04 03:15:41;;;;;;;45.63;16.33;;;5.30;99.90;;;;;;5045025;28;20045;-70
2021/12/04 03:18:07;;;;;;;42.65;12.52;;;5.30;99.90;;;;;;5031514;28;20071;-71
2021/12/04 03:20:40;;;;;;;46.75;16.20;;;5.40;99.90;;;;;;5044229;28;20044;-70
2021/12/04 03:23:15;;;;;;;48.90;16.40;;;5.40;99.90;;;;;;5037454;28;20401;-70
2021/12/04 03:25:42;;;;;;;50.10;17.67;;;5.40;99.90;;;;;;5039618;28;20053;-70
2021/12/04 03:28:08;;;;;;;46.80;16.77;;;5.40;99.90;;;;;;5068387;28;20048;-70
2021/12/04 03:30:43;;;;;;;49.92;16.67;;;5.30;99.90;;;;;;5033867;28;20131;-70
2021/12/04 03:41:06;;;;;;;39.90;14.57;;;5.30;99.90;;;;;;5051261;28;20061;-71
2021/12/04 03:43:32;;;;;;;44.00;15.00;;;5.40;99.90;;;;;;5049617;28;20044;-70
2021/12/04 03:46:03;;;;;;;37.40;14.57;;;5.30;99.90;;;;;;5036322;28;20059;-71
2021/12/04 03:50:56;;;;;;;39.60;15.43;;;5.30;99.90;;;;;;5048876;28;20068;-71
2021/12/04 03:53:22;;;;;;;42.97;16.67;;;5.40;99.90;;;;;;5045938;28;20052;-70
2021/12/04 03:55:50;;;;;;;38.42;13.30;;;5.30;99.90;;;;;;5035513;28;20044;-70
2021/12/04 03:58:16;;;;;;;38.28;13.30;;;6.00;99.90;;;;;;5016808;28;20283;-71
2021/12/04 04:00:42;;;;;;;45.92;16.73;;;5.30;99.90;;;;;;5040447;28;20123;-70
2021/12/04 04:03:07;;;;;;;40.10;14.90;;;5.30;99.90;;;;;;5053606;28;20076;-70
2021/12/04 04:05:33;;;;;;;40.25;15.43;;;5.30;99.90;;;;;;5024685;28;20060;-70
2021/12/04 04:07:59;;;;;;;36.05;13.35;;;5.30;99.90;;;;;;5039288;28;20528;-71
2021/12/04 04:10:25;;;;;;;34.35;13.40;;;6.20;99.90;;;;;;5004292;28;20053;-70
2021/12/04 04:12:50;;;;;;;28.23;12.52;;;5.30;99.90;;;;;;5030784;28;20056;-70
2021/12/04 04:15:17;;;;;;;32.45;12.48;;;5.60;99.90;;;;;;5012678;28;20482;-70
2021/12/04 04:17:43;;;;;;;39.83;14.73;;;5.30;99.90;;;;;;5050720;28;20131;-71
2021/12/04 04:20:16;;;;;;;40.47;14.73;;;5.30;99.90;;;;;;5024726;28;20052;-69
2021/12/04 04:22:43;;;;;;;38.72;14.15;;;5.30;99.90;;;;;;5048017;28;20145;-70
2021/12/04 04:25:09;;;;;;;34.92;13.30;;;5.30;99.90;;;;;;5037294;28;20060;-70
2021/12/04 04:27:36;;;;;;;34.08;13.43;;;5.20;99.90;;;;;;5034635;28;20053;-70
2021/12/04 04:30:06;;;;;;;37.95;14.18;;;5.70;99.90;;;;;;5016551;28;20043;-70
2021/12/04 04:32:32;;;;;;;32.65;12.35;;;5.30;99.90;;;;;;5041712;28;20049;-70
2021/12/04 04:35:07;;;;;;;38.67;13.50;;;5.20;99.90;;;;;;5033644;28;20062;-70
2021/12/04 05:12:46;;;;;;;38.72;12.38;;;5.20;99.90;;;;;;5042257;28;20084;-73
2021/12/04 05:15:18;;;;;;;37.63;12.70;;;5.60;99.90;;;;;;5049745;28;20075;-70
2021/12/04 05:20:19;;;;;;;36.85;11.82;;;5.20;99.90;;;;;;5062131;28;20027;-70
2021/12/04 05:22:45;;;;;;;39.85;13.18;;;5.10;99.90;;;;;;5047063;28;20120;-70
2021/12/04 05:25:11;;;;;;;38.03;12.00;;;5.10;99.90;;;;;;5039201;28;20449;-71
2021/12/04 05:27:37;;;;;;;39.38;11.73;;;5.10;99.90;;;;;;5034987;28;20053;-70
2021/12/04 05:30:04;;;;;;;39.80;12.63;;;5.20;99.90;;;;;;5043506;28;20131;-70
2021/12/04 05:32:30;;;;;;;40.42;11.90;;;5.10;99.90;;;;;;5020220;28;20073;-72
2021/12/04 05:34:56;;;;;;;48.20;14.00;;;5.30;99.90;;;;;;5017314;28;20574;-70
2021/12/04 05:37:21;;;;;;;43.50;12.95;;;5.40;99.90;;;;;;5047649;28;20037;-72
2021/12/04 05:39:47;;;;;;;38.17;11.02;;;5.10;99.90;;;;;;5018425;28;20075;-69
2021/12/04 05:42:13;;;;;;;45.17;13.68;;;5.20;99.90;;;;;;5030080;28;20037;-70
2021/12/04 05:44:40;;;;;;;43.70;13.55;;;5.10;99.90;;;;;;5043597;28;20048;-71
2021/12/04 05:47:13;;;;;;;37.30;12.15;;;5.10;99.90;;;;;;5033863;28;20512;-71
2021/12/04 05:52:33;;;;;;;37.92;13.38;;;5.20;99.90;;;;;;5046450;28;20444;-70
2021/12/04 05:57:36;;;;;;;40.78;12.73;;;5.20;99.90;;;;;;5047268;28;20057;-70
2021/12/04 06:00:08;;;;;;;38.38;12.43;;;5.10;99.90;;;;;;5038324;28;20055;-71
2021/12/04 06:02:34;;;;;;;42.35;13.73;;;5.10;99.90;;;;;;5032525;28;20289;-70
2021/12/04 06:05:00;;;;;;;36.80;12.15;;;5.00;99.90;;;;;;5003815;28;20060;-73
2021/12/04 06:07:25;;;;;;;38.03;13.15;;;5.00;99.90;;;;;;5019548;28;20056;-69
2021/12/04 06:09:51;;;;;;;33.67;10.18;;;5.00;99.90;;;;;;5017690;28;20133;-70
2021/12/04 06:12:17;;;;;;;32.80;11.80;;;4.90;99.90;;;;;;5017123;28;20116;-70
2021/12/04 06:14:45;;;;;;;42.78;12.98;;;4.90;99.90;;;;;;5040779;28;20109;-70
2021/12/04 06:17:12;;;;;;;40.35;12.10;;;5.50;99.90;;;;;;5036378;28;20098;-71
2021/12/04 06:22:38;;;;;;;43.95;14.68;;;4.80;99.90;;;;;;5036475;28;20052;-71
2021/12/04 06:25:30;;;;;;;49.70;14.60;;;4.90;99.90;;;;;;5035831;28;20048;-70
2021/12/04 06:27:56;;;;;;;52.55;14.65;;;4.90;99.90;;;;;;5032429;28;20399;-70
2021/12/04 06:30:23;;;;;;;49.85;12.90;;;5.00;99.90;;;;;;5033587;28;20334;-71
2021/12/04 06:32:51;;;;;;;49.65;14.90;;;5.10;99.90;;;;;;5021940;28;20062;-70
2021/12/04 06:35:20;;;;;;;53.50;14.30;;;5.00;99.90;;;;;;5037965;28;20040;-70
2021/12/04 06:37:48;;;;;;;43.92;14.40;;;5.40;99.90;;;;;;5039915;28;20121;-70
2021/12/04 06:40:17;;;;;;;52.72;14.20;;;5.10;99.90;;;;;;5036513;28;20045;-70
2021/12/04 06:42:44;;;;;;;49.90;14.30;;;5.00;99.90;;;;;;5030217;28;20048;-70
2021/12/04 06:45:11;;;;;;;58.97;15.15;;;5.10;99.90;;;;;;5017522;28;20091;-72
2021/12/04 06:47:40;;;;;;;42.30;13.38;;;5.40;99.90;;;;;;5015678;28;20122;-70
2021/12/04 06:50:16;;;;;;;55.65;14.88;;;5.00;99.90;;;;;;5034735;28;20045;-70
2021/12/04 06:52:45;;;;;;;58.65;15.38;;;5.10;99.90;;;;;;5020708;28;20076;-70
2021/12/04 06:55:14;;;;;;;56.28;13.60;;;5.60;99.90;;;;;;5035940;28;20044;-70
2021/12/04 06:57:40;;;;;;;56.47;13.45;;;5.10;99.90;;;;;;5034911;28;20052;-70
2021/12/04 07:00:07;;;;;;;45.38;12.90;;;5.10;99.90;;;;;;5020405;28;20374;-70
2021/12/04 07:02:33;;;;;;;49.50;14.52;;;5.10;99.90;;;;;;5033265;28;20056;-69
2021/12/04 07:04:59;;;;;;;50.88;14.10;;;5.20;99.90;;;;;;5038192;28;20094;-70
2021/12/04 07:07:24;;;;;;;44.58;13.43;;;5.10;99.90;;;;;;5034555;28;20458;-70
2021/12/04 07:09:50;;;;;;;51.97;14.32;;;5.10;99.90;;;;;;5001188;28;20064;-70
2021/12/04 07:12:16;;;;;;;41.95;12.07;;;5.10;99.90;;;;;;5034679;28;20084;-70
2021/12/04 07:14:42;;;;;;;44.28;13.13;;;5.10;99.90;;;;;;5037583;28;20056;-70
2021/12/04 07:17:09;;;;;;;37.95;13.20;;;5.30;99.90;;;;;;5035039;28;20041;-70
2021/12/04 07:19:35;;;;;;;45.00;14.10;;;5.40;99.90;;;;;;5019220;28;20479;-70
2021/12/04 07:22:03;;;;;;;48.42;14.38;;;5.10;99.90;;;;;;5040377;28;20551;-71
2021/12/04 07:24:31;;;;;;;52.72;13.88;;;5.10;99.90;;;;;;5033888;28;20405;-71
2021/12/04 07:26:57;;;;;;;48.83;14.05;;;5.20;99.90;;;;;;5020790;28;20053;-71
2021/12/04 07:29:23;;;;;;;53.38;14.98;;;5.10;99.90;;;;;;5036885;28;20048;-70
2021/12/04 07:31:49;;;;;;;52.13;14.85;;;5.10;99.90;;;;;;5017090;28;20037;-70
2021/12/04 07:34:15;;;;;;;58.42;15.10;;;5.20;99.90;;;;;;5035147;28;20441;-72
2021/12/04 07:36:40;;;;;;;69.68;16.08;;;5.10;99.90;;;;;;5019772;28;20045;-70
2021/12/04 07:39:06;;;;;;;72.70;16.27;;;5.30;99.90;;;;;;5036622;28;20033;-70
2021/12/04 07:41:37;;;;;;;66.95;15.30;;;5.30;99.90;;;;;;5014765;28;20076;-70
2021/12/04 07:44:04;;;;;;;70.88;15.68;;;5.20;99.90;;;;;;5031858;28;20045;-70
2021/12/04 07:46:30;;;;;;;72.85;16.42;;;5.10;99.90;;;;;;5033763;28;20089;-72
2021/12/04 07:48:56;;;;;;;59.88;13.70;;;5.10;99.90;;;;;;5008022;28;20052;-70
2021/12/04 07:51:21;;;;;;;65.40;15.50;;;5.20;99.90;;;;;;5046439;28;20037;-70
2021/12/04 07:53:47;;;;;;;71.60;15.27;;;5.10;99.90;;;;;;5042693;28;20051;-70
2021/12/04 07:56:14;;;;;;;59.65;14.98;;;5.20;99.90;;;;;;5035485;28;20052;-71
2021/12/04 07:58:42;;;;;;;55.92;14.88;;;5.30;99.90;;;;;;5030271;28;20052;-70
2021/12/04 08:01:09;;;;;;;52.78;13.73;;;5.20;99.90;;;;;;5031020;28;20051;-70
2021/12/04 08:03:35;;;;;;;42.80;14.07;;;5.10;99.90;;;;;;5040381;28;20076;-71
2021/12/04 08:06:01;;;;;;;46.55;14.25;;;5.20;99.90;;;;;;5043526;28;20068;-71
2021/12/04 08:08:27;;;;;;;51.47;15.02;;;5.20;99.90;;;;;;5057002;28;20047;-70
2021/12/04 08:10:52;;;;;;;43.05;13.77;;;5.20;99.90;;;;;;5037006;28;20154;-70
2021/12/04 08:13:18;;;;;;;45.15;14.73;;;5.20;99.90;;;;;;5039613;28;20040;-72
2021/12/04 08:15:44;;;;;;;41.65;14.35;;;5.20;99.90;;;;;;5036741;28;20041;-70
2021/12/04 08:18:10;;;;;;;39.47;14.40;;;5.20;99.90;;;;;;5037144;28;20052;-70
2021/12/04 08:20:36;;;;;;;44.88;15.35;;;5.20;99.90;;;;;;5018876;28;20103;-70
2021/12/04 08:23:04;;;;;;;39.50;13.70;;;5.20;99.90;;;;;;5041297;28;20118;-71
2021/12/04 08:25:31;;;;;;;35.78;13.13;;;5.20;99.90;;;;;;5039684;28;20409;-73
2021/12/04 08:27:58;;;;;;;35.88;12.75;;;5.30;99.90;;;;;;5025643;28;20063;-71
2021/12/04 08:30:25;;;;;;;39.35;12.65;;;5.20;99.90;;;;;;5046355;28;20128;-70
2021/12/04 08:32:54;;;;;;;35.42;12.07;;;5.30;99.90;;;;;;5043623;28;20048;-70
2021/12/04 08:35:23;;;;;;;37.00;13.20;;;5.40;99.90;;;;;;5035703;28;20171;-70
2021/12/04 08:37:50;;;;;;;30.13;11.55;;;5.30;99.90;;;;;;5030666;28;20047;-70
2021/12/04 08:40:16;;;;;;;29.30;11.55;;;5.30;99.90;;;;;;5047980;28;20076;-71
2021/12/04 08:42:46;;;;;;;31.33;12.15;;;5.40;99.90;;;;;;5028768;28;20131;-70
2021/12/04 08:45:15;;;;;;;31.95;12.48;;;5.40;99.90;;;;;;5019888;28;20036;-72
2021/12/04 08:47:41;;;;;;;27.80;11.68;;;5.40;99.90;;;;;;5042661;28;20052;-70
2021/12/04 08:50:15;;;;;;;26.88;11.90;;;5.40;99.90;;;;;;5056306;28;20110;-72
2021/12/04 08:52:42;;;;;;;23.23;11.02;;;5.40;99.90;;;;;;5038377;28;20052;-70
2021/12/04 08:55:08;;;;;;;25.52;11.65;;;5.40;99.90;;;;;;5006291;28;20055;-69
2021/12/04 08:57:34;;;;;;;24.88;11.45;;;5.50;99.90;;;;;;5039542;28;20102;-71
2021/12/04 09:00:00;;;;;;;24.35;11.20;;;5.40;99.90;;;;;;5040540;28;20056;-71
2021/12/04 09:02:26;;;;;;;23.75;11.50;;;5.50;99.90;;;;;;5003295;28;20125;-70
2021/12/04 09:04:54;;;;;;;28.70;12.27;;;6.20;99.90;;;;;;5005560;28;20038;-70
2021/12/04 09:07:20;;;;;;;23.55;11.45;;;5.50;99.90;;;;;;5037668;28;20049;-70
2021/12/04 09:09:46;;;;;;;24.55;11.82;;;5.50;99.90;;;;;;5057498;28;20045;-70
2021/12/04 09:12:16;;;;;;;24.27;10.55;;;5.50;99.90;;;;;;5037318;28;20041;-70
2021/12/04 09:14:43;;;;;;;24.00;11.07;;;5.60;99.90;;;;;;5037909;28;20083;-71
2021/12/04 09:17:14;;;;;;;25.50;11.55;;;5.60;99.90;;;;;;5039801;28;20103;-70
2021/12/04 09:19:40;;;;;;;24.75;10.98;;;5.60;99.90;;;;;;5014941;28;20386;-70
2021/12/04 09:22:12;;;;;;;24.55;12.07;;;5.60;99.90;;;;;;5038689;28;20102;-70
2021/12/04 09:24:40;;;;;;;27.20;11.70;;;5.60;99.90;;;;;;5035203;28;20056;-70
2021/12/04 10:02:24;;;;;;;27.70;11.90;;;5.80;99.90;;;;;;5040991;28;20132;-70
2021/12/04 10:18:53;;;;;;;26.77;10.65;;;5.90;99.90;;;;;;5052196;28;20097;-70
2021/12/04 10:22:05;;;;;;;23.25;11.25;;;5.90;99.90;;;;;;5037306;28;20049;-71
2021/12/04 10:24:29;;;;;;;30.67;12.18;;;6.00;99.90;;;;;;5029812;28;20060;-70
2021/12/04 10:35:21;;;;;;;29.05;11.00;;;5.90;99.90;;;;;;5035185;28;20049;-70
2021/12/04 10:37:54;;;;;;;30.33;11.88;;;5.90;99.90;;;;;;5052148;28;20045;-71
2021/12/04 10:40:23;;;;;;;25.42;11.40;;;5.90;99.90;;;;;;5044248;28;20053;-70
2021/12/04 10:42:53;;;;;;;30.52;11.73;;;5.90;99.90;;;;;;5036632;28;20559;-71
2021/12/04 10:45:30;;;;;;;27.70;11.15;;;6.00;99.90;;;;;;5034152;28;20056;-71
2021/12/04 10:47:59;;;;;;;28.80;11.63;;;6.10;99.90;;;;;;5037772;28;20048;-71
2021/12/04 10:50:38;;;;;;;35.35;13.10;;;6.00;99.90;;;;;;5015334;28;20056;-70
2021/12/04 10:53:12;;;;;;;34.95;12.20;;;6.00;99.90;;;;;;5028643;28;20071;-71
2021/12/04 10:58:40;;;;;;;35.80;13.98;;;6.10;99.90;;;;;;5053320;28;20051;-70
2021/12/04 11:21:26;;;;;;;50.78;16.17;;;6.00;99.90;;;;;;5046620;28;20052;-71
2021/12/04 11:28:48;;;;;;;44.70;15.90;;;6.00;99.90;;;;;;5021054;28;20044;-72
2021/12/04 11:44:46;;;;;;;47.20;16.95;;;5.90;99.90;;;;;;5037470;28;20444;-71
2021/12/04 11:47:12;;;;;;;47.33;16.65;;;6.00;99.90;;;;;;5036637;28;20127;-71
2021/12/04 11:49:38;;;;;;;53.05;16.92;;;5.90;99.90;;;;;;5049480;28;20135;-73
2021/12/04 11:52:30;;;;;;;47.55;16.80;;;6.20;99.90;;;;;;5056023;28;20455;-72
2021/12/04 11:54:58;;;;;;;;;;;6.20;99.90;;;;;;5042787;28;20061;-72
2021/12/04 11:57:33;;;;;;;42.75;16.23;;;5.90;99.90;;;;;;5043683;28;19927;-71
2021/12/04 12:00:31;;;;;;;50.92;17.25;;;6.00;99.90;;;;;;5027042;28;20049;-70
2021/12/04 12:03:16;;;;;;;49.40;18.17;;;5.90;99.90;;;;;;5036865;28;20048;-69
2021/12/04 12:05:50;;;;;;;47.00;17.60;;;6.00;99.90;;;;;;5033499;28;20033;-70
2021/12/04 12:08:30;;;;;;;50.42;19.02;;;6.00;99.90;;;;;;5040179;28;20577;-71
2021/12/04 12:11:00;;;;;;;50.72;19.02;;;6.00;99.90;;;;;;5030311;28;20049;-70
2021/12/04 12:13:29;;;;;;;50.90;17.60;;;6.00;99.90;;;;;;5040903;28;20055;-69
2021/12/04 12:16:02;;;;;;;55.63;19.02;;;6.10;99.90;;;;;;5039753;28;20044;-70
2021/12/04 12:18:28;;;;;;;54.38;19.27;;;6.10;99.90;;;;;;5019994;28;20056;-69
2021/12/04 12:21:01;;;;;;;49.70;19.75;;;6.50;99.90;;;;;;5024049;28;20045;-69
2021/12/04 12:23:31;;;;;;;51.47;19.05;;;6.10;99.90;;;;;;5023075;28;20045;-70
2021/12/04 12:26:14;;;;;;;54.15;19.75;;;6.00;99.90;;;;;;5019839;28;20096;-70
2021/12/04 12:31:53;;;;;;;48.80;18.10;;;6.00;99.90;;;;;;5019887;28;20045;-69
2021/12/04 12:36:02;;;;;;;44.90;17.20;;;6.00;99.90;;;;;;5033844;28;20167;-69
2021/12/04 12:37:27;;;;;;;46.70;18.20;;;6.00;99.90;;;;;;5023557;28;20057;-69
2021/12/04 12:40:04;;;;;;;47.83;18.75;;;6.00;99.90;;;;;;5020986;28;20041;-70
2021/12/04 12:42:38;;;;;;;53.70;18.98;;;6.10;99.90;;;;;;5024652;28;20120;-72
2021/12/04 12:45:21;;;;;;;50.28;19.15;;;6.10;99.90;;;;;;5023039;28;20437;-70
2021/12/04 12:48:07;;;;;;;51.90;19.00;;;6.20;99.90;;;;;;5007307;28;20049;-70
2021/12/04 12:50:37;;;;;;;44.15;17.05;;;6.10;99.90;;;;;;5020037;28;20044;-70
2021/12/04 12:53:26;;;;;;;44.60;17.02;;;6.20;99.90;;;;;;5026498;28;20060;-70
2021/12/04 12:56:06;;;;;;;45.78;16.80;;;6.10;99.90;;;;;;5002123;28;20119;-70
2021/12/04 12:59:21;;;;;;;42.13;16.08;;;6.10;99.90;;;;;;5019487;28;20049;-70
2021/12/04 13:13:27;;;;;;;42.58;16.85;;;6.00;99.90;;;;;;5036114;28;20063;-69
2021/12/04 13:15:57;;;;;;;44.13;17.33;;;5.90;99.90;;;;;;5036530;28;20147;-70
2021/12/04 13:18:25;;;;;;;44.28;17.40;;;6.00;99.90;;;;;;5021659;28;20056;-69
2021/12/04 13:20:53;;;;;;;43.92;17.83;;;6.00;99.90;;;;;;5016267;28;20065;-70
2021/12/04 13:23:22;;;;;;;42.45;17.27;;;6.00;99.90;;;;;;5019396;28;20049;-71
2021/12/04 13:26:09;;;;;;;50.10;19.08;;;6.00;99.90;;;;;;5040884;28;20501;-70
2021/12/04 13:28:38;;;;;;;46.08;17.95;;;5.90;99.90;;;;;;5039336;28;20127;-70
2021/12/04 13:31:06;;;;;;;50.85;18.98;;;6.20;99.90;;;;;;5020581;28;20394;-70
2021/12/04 13:33:36;;;;;;;46.50;18.52;;;5.90;99.90;;;;;;5039854;28;20105;-70
2021/12/04 13:36:10;;;;;;;51.67;18.88;;;5.90;99.90;;;;;;5041425;28;20056;-70
2021/12/04 13:38:36;;;;;;;53.80;20.48;;;5.90;99.90;;;;;;5020008;28;20121;-70
2021/12/04 13:41:02;;;;;;;50.35;18.42;;;5.90;99.90;;;;;;5018486;28;20128;-70
2021/12/04 13:43:28;;;;;;;52.15;19.42;;;6.00;99.90;;;;;;5017692;28;20037;-71
2021/12/04 13:45:59;;;;;;;54.17;20.63;;;5.90;99.90;;;;;;5037591;28;20052;-70
2021/12/04 13:48:27;;;;;;;61.88;20.83;;;6.00;99.90;;;;;;5014080;28;20052;-70
2021/12/04 13:50:53;;;;;;;59.97;21.05;;;6.10;99.90;;;;;;5013212;28;20080;-69
2021/12/04 13:53:21;;;;;;;62.05;21.65;;;5.90;99.90;;;;;;5031821;28;20485;-71
2021/12/04 13:55:55;;;;;;;60.42;20.15;;;6.00;99.90;;;;;;5033416;28;20075;-71
2021/12/04 13:58:22;;;;;;;61.38;19.52;;;6.10;99.90;;;;;;5038901;28;20045;-69
2021/12/04 14:00:48;;;;;;;60.00;20.40;;;5.90;99.90;;;;;;5035757;28;20053;-70
2021/12/04 14:03:24;;;;;;;54.35;19.35;;;5.90;99.90;;;;;;5036348;28;20056;-72
2021/12/04 14:05:50;;;;;;;57.25;18.33;;;5.90;99.90;;;;;;5054397;28;20112;-70
2021/12/04 14:08:16;;;;;;;58.15;17.88;;;5.90;99.90;;;;;;5019389;28;20130;-70
2021/12/04 14:10:44;;;;;;;53.40;18.08;;;6.10;99.90;;;;;;5035328;28;20132;-70
2021/12/04 14:13:12;;;;;;;55.72;17.55;;;6.00;99.90;;;;;;5035109;28;20058;-70
2021/12/04 14:15:43;;;;;;;59.67;16.13;;;5.80;99.90;;;;;;5052984;28;20486;-70
2021/12/04 14:18:11;;;;;;;59.10;18.77;;;6.10;99.90;;;;;;5041384;28;20059;-69
2021/12/04 14:20:39;;;;;;;58.05;18.00;;;5.90;99.90;;;;;;5029547;28;20052;-70
2021/12/04 14:23:05;;;;;;;53.92;17.23;;;6.10;99.90;;;;;;5038071;28;20601;-70
2021/12/04 14:25:31;;;;;;;52.50;16.42;;;5.90;99.90;;;;;;5054345;28;20091;-69
2021/12/04 14:28:00;;;;;;;52.97;17.77;;;5.90;99.90;;;;;;5032830;28;20057;-70
2021/12/04 14:30:33;;;;;;;52.92;17.42;;;5.90;99.90;;;;;;5021891;28;20045;-70
2021/12/04 14:33:02;;;;;;;51.17;18.10;;;5.90;99.90;;;;;;5026146;28;20041;-70
2021/12/04 14:35:37;;;;;;;50.70;17.60;;;5.90;99.90;;;;;;5030689;28;20490;-70
2021/12/04 14:38:07;;;;;;;55.05;17.13;;;6.20;99.90;;;;;;5030417;28;20505;-69
2021/12/04 14:40:41;;;;;;;52.45;17.73;;;6.00;99.90;;;;;;5024922;28;20049;-69
2021/12/04 14:43:10;;;;;;;47.90;16.63;;;6.30;99.90;;;;;;5032010;28;20045;-71
2021/12/04 14:45:38;;;;;;;50.50;16.58;;;6.00;99.90;;;;;;5036412;28;20170;-70
2021/12/04 14:48:06;;;;;;;47.53;16.33;;;6.00;99.90;;;;;;5026310;28;20504;-70
2021/12/04 14:50:33;;;;;;;52.05;16.38;;;6.00;99.90;;;;;;5037755;28;20040;-70
2021/12/04 14:53:02;;;;;;;51.38;15.27;;;6.00;99.90;;;;;;5046047;28;20079;-70
2021/12/04 14:55:34;;;;;;;44.53;15.65;;;6.00;99.90;;;;;;5037213;28;20127;-70
2021/12/04 14:58:04;;;;;;;44.55;15.60;;;6.00;99.90;;;;;;5045180;28;20052;-73
2021/12/04 15:00:41;;;;;;;48.33;15.32;;;6.20;99.90;;;;;;5039113;28;20040;-71
2021/12/04 15:03:15;;;;;;;42.50;15.00;;;5.90;99.90;;;;;;5037136;28;20059;-73
2021/12/04 15:05:47;;;;;;;43.90;15.52;;;6.00;99.90;;;;;;5053799;28;20056;-71
2021/12/04 15:08:21;;;;;;;41.95;14.43;;;6.00;99.90;;;;;;5042874;28;20146;-70
2021/12/04 15:11:08;;;;;;;41.78;14.80;;;6.00;99.90;;;;;;5039319;28;20041;-71
2021/12/04 15:13:42;;;;;;;40.75;14.70;;;5.90;99.90;;;;;;5052764;28;20049;-70
2021/12/04 15:16:12;;;;;;;52.80;17.48;;;6.00;99.90;;;;;;5047845;28;20045;-70
2021/12/04 15:18:39;;;;;;;50.20;17.70;;;6.00;99.90;;;;;;5034406;28;20044;-70
2021/12/04 15:21:15;;;;;;;55.20;19.42;;;6.00;99.90;;;;;;5043916;28;20080;-71
2021/12/04 15:23:44;;;;;;;49.78;18.83;;;5.90;99.90;;;;;;5037012;28;20052;-70
2021/12/04 15:26:18;;;;;;;51.92;18.85;;;6.00;99.90;;;;;;5050808;28;20441;-70
2021/12/04 15:28:48;;;;;;;53.90;19.65;;;6.00;99.90;;;;;;5036978;28;20080;-71
2021/12/04 15:31:16;;;;;;;57.38;21.02;;;6.00;99.90;;;;;;5037861;28;20072;-70
2021/12/04 15:33:48;;;;;;;55.75;20.13;;;5.90;99.90;;;;;;5035113;28;20056;-70
2021/12/04 15:36:26;;;;;;;61.92;20.60;;;6.00;99.90;;;;;;5023327;28;20486;-70
2021/12/04 15:38:56;;;;;;;62.13;21.73;;;6.00;99.90;;;;;;5039280;28;20508;-70
2021/12/04 15:44:47;;;;;;;69.15;23.05;;;5.90;99.90;;;;;;5033031;28;20788;-71
2021/12/04 15:53:12;;;;;;;71.95;23.50;;;5.90;99.90;;;;;;5033603;28;20049;-71
2021/12/04 15:55:47;;;;;;;77.72;23.27;;;5.90;99.90;;;;;;5032583;28;20494;-72
2021/12/04 15:58:19;;;;;;;86.97;24.52;;;5.90;99.90;;;;;;5029491;28;20040;-71
2021/12/04 16:00:49;;;;;;;78.60;24.40;;;5.90;99.90;;;;;;5018217;28;20059;-72